EHEH 200055Z AUTO 17001KT 0200 FG FEW000 OVC280 10/10 Q1022 RED EHEH 200050Z AUTO 17001KT 3500 BR OVC280 10/10 Q1022 YLO EHEH 200044Z AUTO 17001KT 3900 BR BKN290 OVC350 10/10 Q1022 GRN EHEH 200040Z AUTO 00000KT 0800 FG FEW000 BKN300 OVC350 10/10 Q1022 AMB EHEH 200025Z AUTO 17001KT 0200 FG FEW300 OVC350 10/10 Q1022 RED EHEH 200018Z AUTO 17001KT 1400 BR FEW300 OVC350 10/10 Q1022 AMB EHEH 200007Z AUTO 17001KT 4600 BR SCT000 BKN360 11/11 Q1022 RED EHEH 192358Z AUTO 17002KT 3000 BR SCT000 SCT360 11/11 Q1022 RED EHEH 192355Z AUTO VRB02KT 2400 BR SCT370 11/11 Q1022 YLO EHEH 192346Z AUTO 16003KT 2000 BR FEW370 11/11 Q1022 YLO EHEH 192345Z AUTO 16003KT 0900 FG NCD 11/10 Q1022 AMB EHEH 192325Z AUTO 19001KT 2500 BR NCD 11/11 Q1022 YLO EHEH 192320Z AUTO 19002KT 2200 BR NCD 11/11 Q1022 YLO EHEH 192316Z AUTO 19002KT 0900 FG FEW270 11/11 Q1022 AMB EHEH 192311Z AUTO 19002KT 1700 BR SCT270 11/11 Q1022 YLO EHEH 192307Z AUTO 19002KT 0800 FG BKN270 12/11 Q1022 AMB EHEH 192259Z AUTO 16001KT 1800 BR OVC270 12/12 Q1022 YLO EHEH 192255Z AUTO 16001KT 1500 BR OVC270 11/11 Q1022 AMB EHEH 192250Z AUTO 15001KT 1000 BR OVC270 12/12 Q1022 AMB EHEH 192246Z AUTO 16001KT 2600 BR OVC270 12/12 Q1022 YLO EHEH 192233Z AUTO 28001KT 2700 BR OVC280 12/11 Q1022 YLO EHEH 192228Z AUTO 28001KT 0700 FG OVC280 12/12 Q1022 RED EHEH 192225Z AUTO 28001KT 3400 BR OVC290 12/12 Q1022 YLO EHEH 192217Z AUTO 28001KT 4000 BR OVC300 13/12 Q1022 GRN EHEH 192210Z AUTO 28001KT 3100 BR OVC300 13/12 Q1022 YLO EHEH 192207Z AUTO 27002KT 4700 BR OVC310 13/13 Q1022 GRN EHEH 192203Z AUTO VRB02KT 5000 BR BKN310 13/13 Q1022 WHT EHEH 192155Z AUTO VRB02KT 4400 BR FEW320 13/13 Q1022 GRN EHEH 192144Z AUTO 28003KT 230V310 5000 BR NCD 14/13 Q1022 WHT BECMG 2500 BR MIFG EHEH 192141Z AUTO 28003KT 230V310 4300 BR NCD 14/13 Q1022 GRN BECMG 2500 BR MIFG EHEH 192125Z AUTO 30003KT 250V350 7000 BR NCD 14/13 Q1022 WHT BECMG 4000 BR MIFG EHEH 192055Z AUTO 30004KT 250V360 9999 NCD 15/13 Q1021 BLU NOSIG EHEH 192025Z AUTO 28003KT 270V340 9999 NCD 15/13 Q1021 BLU NOSIG EHEH 191955Z AUTO 27004KT 240V320 9999 NCD 16/13 Q1021 BLU NOSIG EHEH 191925Z AUTO 27004KT 230V310 9999 SCT250 17/13 Q1021 BLU NOSIG EHEH 191855Z AUTO 28007KT 230V300 9999 BKN280 18/14 Q1021 BLU NOSIG EHEH 191835Z AUTO 29006KT 230V330 9999 FEW021 BKN290 18/14 Q1020 BLU NOSIG EHEH 191825Z AUTO 28007KT 220V310 9999 BKN021 18/14 Q1020 WHT NOSIG EHEH 191755Z AUTO 29006KT 240V350 9999 BKN023 19/15 Q1020 WHT NOSIG EHEH 191725Z AUTO 29008KT 240V340 9999 BKN024 19/15 Q1020 WHT NOSIG EHEH 191700Z AUTO 27011KT 230V030 9999 FEW017 OVC030 20/16 Q1019 BLU NOSIG EHEH 191657Z AUTO 27011KT 230V340 9999 SCT017 OVC031 20/16 Q1019 WHT NOSIG EHEH 191655Z AUTO 27011KT 230V330 9999 SCT017 BKN031 BKN036 20/16 Q1019 WHT BECMG SCT020 EHEH 191625Z AUTO 25011KT 210V310 9999 SCT032 BKN052 OVC059 20/16 Q1019 BLU BECMG SCT020 EHEH 191614Z AUTO 26009KT 220V290 9999 FEW019 BKN033 OVC059 21/16 Q1019 BLU BECMG SCT020 EHEH 191608Z AUTO 27008KT 210V300 9999 SCT018 SCT022 BKN063 21/17 Q1019 WHT BECMG SCT020 EHEH 191555Z AUTO 24009KT 200V290 9999 SCT016 BKN019 BKN027 22/18 Q1019 WHT BECMG SCT015 EHEH 191534Z AUTO 24008KT 170V300 9999 FEW014 SCT017 BKN020 21/18 Q1019 WHT BECMG SCT015 EHEH 191530Z AUTO 23008KT 200V300 9999 FEW012 SCT017 21/17 Q1019 WHT BECMG SCT015 EHEH 191528Z AUTO 23007KT 190V290 9999 FEW012 SCT014 BKN140 21/18 Q1019 GRN BECMG SCT015 EHEH 191525Z AUTO 24007KT 190V280 9999 FEW012 SCT015 BKN140 21/18 Q1019 WHT BECMG SCT015 EHEH 191507Z AUTO 25008KT 190V290 9999 FEW011 OVC140 21/18 Q1018 BLU BECMG SCT015 EHEH 191455Z AUTO 23008KT 210V280 9999 FEW009 SCT010 BKN013 20/17 Q1018 GRN BECMG SCT015 EHEH 191447Z AUTO 23007KT 210V270 9999 FEW010 SCT014 OVC130 20/17 Q1018 GRN NOSIG EHEH 191425Z AUTO VRB03KT 9999 OVC130 20/16 Q1018 BLU NOSIG EHEH 191356Z AUTO VRB01KT 9999 FEW015CB OVC093 19/18 Q1017 BLU TEMPO FEW030CB BKN090 EHEH 191355Z AUTO VRB02KT 9999 TS SCT015CB BKN093 OVC098 19/18 Q1017 RERA WHT TEMPO VRB16G42KT 2000 TSRAGR SCT012 BKN030CB BKN090 EHEH 191337Z AUTO VRB07KT 8000 +TSRA SCT015CB SCT072 BKN087 18/17 Q1018 WHT TEMPO VRB16G42KT 2000 TSRAGR SCT012 BKN030CB BKN090 EHEH 191336Z AUTO 28005KT 210V330 4900 +TSRA FEW015CB BKN070 BKN092 18/17 Q1018 GRN TEMPO VRB16G42KT 2000 TSRAGR SCT012 BKN030CB BKN090 EHEH 191325Z AUTO 36004KT 300V060 9999 FEW015CB SCT096 OVC100 19/17 Q1017 RETS BLU TEMPO VRB16G42KT 2000 TSRAGR SCT012 BKN030CB BKN090 EHEH 191255Z AUTO 32007KT 270V030 9999 FEW015CB SCT100 OVC150 18/17 Q1018 RETSRA BLU TEMPO VRB16G42KT 2000 TSRAGR SCT012 BKN030CB BKN090 EHEH 191241Z AUTO 30007KT 220V020 9999 TS FEW015CB OVC100 17/16 Q1018 BLU TEMPO VRB16G42KT 2000 TSRAGR SCT012 BKN030CB BKN090 EHEH 191240Z AUTO 29007KT 220V350 9999 TS SCT015CB OVC100 17/16 Q1018 WHT TEMPO VRB16G42KT 2000 TSRAGR SCT012 BKN030CB BKN090 EHEH 191236Z AUTO 30008KT 220V010 9999 TS BKN015CB SCT060 OVC100 17/16 Q1017 WHT TEMPO VRB16G42KT 2000 TSRAGR SCT012 BKN030CB BKN090 EHEH 191232Z AUTO 31008KT 260V040 9999 -TSRA BKN015CB SCT060 BKN093 17/16 Q1017 WHT TEMPO VRB16G42KT 2000 TSRAGR SCT012 BKN030CB BKN090 EHEH 191226Z AUTO 31009KT 260V040 9999 TSRA BKN015CB SCT081 BKN089 17/16 Q1017 WHT TEMPO VRB16G42KT 1000 TSRAGR SCT012 BKN030CB BKN090 EHEH 191225Z AUTO 30009KT 220V010 9999 TSRA FEW015CB SCT084 OVC094 17/16 Q1018 BLU TEMPO VRB16G42KT 1000 TSRAGR SCT012 BKN030CB BKN090 EHEH 191216Z AUTO 28009KT 220V360 9999 -TSRA FEW000 FEW015CB SCT079 BKN086 17/16 Q1018 BLU TEMPO VRB16G42KT 1000 TSRAGR SCT012 BKN030CB BKN090 EHEH 191209Z AUTO 29011G23KT 220V010 9999 -TSRA FEW000 SCT004 FEW015CB BKN073 17/16 Q1018 YLO TEMPO VRB16G42KT 1000 TSRAGR SCT012 BKN030CB BKN090 EHEH 191159Z AUTO 28018G29KT 220V340 6000 +TSRA SCT000 BKN004 BKN010 FEW015CB 16/15 Q1019 RED TEMPO VRB16G42KT 1000 TSRAGR SCT012 BKN030CB BKN090 EHEH 191155Z AUTO 27023G43KT 220V320 6000 +TSRA FEW000 SCT004 FEW015CB BKN022 16/15 Q1019 YLO TEMPO VRB16G42KT 0500 TSRAGR SCT012 BKN030CB BKN090 EHEH 191144Z AUTO 26034G46KT 230V330 2700 R21/P3000D -TSRA FEW000 FEW015CB SCT020 BKN055 18/14 Q1017 YLO TEMPO VRB16G42KT 0500 TSRAGR SCT012 BKN030CB BKN090 EHEH 191143Z AUTO 24040G60KT 190V300 9999 TS FEW025 FEW030CB SCT054 BKN061 22/15 Q1016 BLU TEMPO VRB16G42KT 0500 TSRAGR SCT012 BKN030CB BKN090 EHEH 191139Z AUTO 22010G42KT 190V260 9999 TS FEW045CB SCT061 BKN077 27/15 Q1016 BLU TEMPO VRB16G42KT 0500 TSRAGR SCT012 BKN030CB BKN090 EHEH 191127Z AUTO 19006KT 140V230 9999 TS FEW045CB SCT072 BKN086 27/15 Q1015 BLU TEMPO VRB16G42KT 2000 TSRAGR SCT012 BKN030CB BKN090 EHEH 191125Z AUTO 18007KT 130V220 9999 BKN071 OVC080 27/15 Q1015 BLU TEMPO VRB15G35KT 2000 TSRAGR SCT012 BKN030CB BKN090 EHEH 191119Z AUTO 17007KT 120V220 9999 OVC071 27/15 Q1015 BLU TEMPO VRB15G35KT 2000 TSRAGR SCT012 BKN030CB BKN090 EHEH 191055Z AUTO 15009KT 100V210 9999 BKN071 BKN077 BKN083 28/14 Q1015 BLU VRB15G35KT 2000 TSRAGR SCT012 BKN030CB BKN090 EHEH 191025Z AUTO 13008KT 100V220 9999 SCT077 SCT085 OVC140 27/15 Q1015 BLU VRB15G35KT 2000 TSRAGR SCT012 BKN030CB BKN090 EHEH 191008Z AUTO 13007KT 070V210 9999 FEW083 SCT090 OVC140 26/15 Q1016 BLU VRB15G35KT 2000 TSRAGR SCT012 BKN030CB BKN090 EHEH 190955Z AUTO 12005KT 110V210 9999 SCT081 OVC140 26/16 Q1016 BLU NOSIG EHEH 190925Z AUTO 11007KT 070V190 9999 OVC170 26/16 Q1016 BLU NOSIG EHEH 190855Z AUTO 12008KT 070V220 9999 OVC170 25/16 Q1016 BLU NOSIG EHEH 190825Z AUTO 12007KT 070V200 9999 OVC190 23/16 Q1016 BLU NOSIG EHEH 190755Z AUTO 13006KT 080V200 9999 OVC190 21/17 Q1017 BLU NOSIG EHEH 190725Z AUTO 13005KT 080V190 9999 OVC170 20/17 Q1016 BLU NOSIG EHEH 190716Z AUTO 12004KT 080V160 9999 FEW015CB BKN150 OVC200 20/17 Q1016 BLU NOSIG EHEH 190655Z AUTO 09003KT 9999 OVC110 20/17 Q1017 BLU TEMPO 21010G20KT 4000 SHRA SCT025 SCT040CB BKN100 EHEH 190625Z AUTO VRB02KT 9999 FEW015CB OVC120 19/17 Q1017 BLU TEMPO 21010G20KT 4000 SHRA SCT025 SCT040CB BKN100 EHEH 190555Z AUTO 10006KT 070V130 9999 -RA FEW015CB SCT086 BKN096 19/16 Q1017 BLU TEMPO 21010G25KT 3000 SHRA TSRA SCT025 SCT040CB BKN080 EHEH 190536Z AUTO 04005KT 030V100 9999 -RA FEW007 FEW015CB SCT065 BKN089 19/16 Q1017 BLU TEMPO 21010G25KT 3000 SHRA TSRA SCT025 SCT040CB BKN080 EHEH 190525Z AUTO 36005KT 340V040 9999 -RA SCT015CB BKN080 OVC089 19/16 Q1017 WHT TEMPO 21010G25KT 3000 SHRA TSRA SCT025 SCT040CB BKN080 EHEH 190517Z AUTO 36004KT 9999 -RA FEW015CB BKN079 OVC085 19/16 Q1018 BLU TEMPO 21010G25KT 3000 SHRA TSRA SCT025 SCT040CB BKN080 EHEH 190455Z AUTO 35003KT 320V050 9999 FEW015CB SCT076 BKN096 19/16 Q1018 BLU TEMPO 21010G23KT 3000 SHRA TSRA SCT025 SCT070CB BKN080 EHEH 190427Z AUTO VRB01KT 9999 OVC087/// 19/16 Q1018 BLU TEMPO 21010G23KT 3000 SHRA TSRA SCT025 SCT070CB BKN080 EHEH 190425Z AUTO VRB02KT 9999 FEW072 OVC087 19/16 Q1018 BLU TEMPO 21010G23KT 3000 SHRA TSRA SCT025 SCT070CB BKN080 EHEH 190355Z AUTO VRB02KT 9999 BKN087 BKN093 BKN140 20/16 Q1018 BLU EHEH 190325Z AUTO VRB08KT 9999 BKN081 OVC087 20/15 Q1018 BLU EHEH 190255Z AUTO 14005KT 120V180 9999 OVC083 19/16 Q1016 BLU EHEH 190225Z AUTO 13005KT 100V180 9999 OVC220 19/16 Q1016 BLU EHEH 190155Z AUTO 12005KT 070V150 9999 OVC230 19/16 Q1016 BLU EHEH 190125Z AUTO 09003KT 060V130 9999 OVC220 19/16 Q1016 BLU EHEH 190055Z AUTO 08005KT 050V110 9999 OVC240 20/16 Q1017 BLU EHEH 190025Z AUTO 07005KT 040V110 9999 OVC260 20/16 Q1017 BLU EHEH 182355Z AUTO 07005KT 040V100 9999 OVC250 20/16 Q1017 BLU EHEH 182325Z AUTO 08005KT 9999 OVC250 20/16 Q1018 BLU EHEH 182255Z AUTO 07006KT 040V110 9999 OVC270 21/16 Q1018 BLU EHEH 182225Z AUTO 06005KT 030V100 9999 FEW072 SCT091 BKN260 21/16 Q1018 BLU EHEH 182155Z AUTO 03003KT 9999 BKN073 OVC080 20/16 Q1019 BLU EHEH 182125Z AUTO 03005KT 9999 OVC270 19/15 Q1019 BLU EHEH 182055Z AUTO 03005KT 9999 SCT073 BKN080 BKN085 21/15 Q1019 BLU NOSIG EHEH 182025Z AUTO 36004KT 9999 BKN072 BKN081 BKN096 21/16 Q1019 BLU NOSIG EHEH 181955Z AUTO 33004KT 310V020 9999 OVC068 22/16 Q1019 BLU NOSIG EHEH 181925Z AUTO 35004KT 9999 FEW073 BKN087 BKN094 22/16 Q1019 BLU NOSIG EHEH 181855Z AUTO 35006KT 320V020 9999 FEW088 BKN098 OVC250 23/16 Q1019 BLU NOSIG EHEH 181825Z AUTO 34005KT 320V030 9999 SCT087 SCT092 OVC250 24/15 Q1019 BLU NOSIG EHEH 181755Z AUTO 34007KT 310V020 9999 BKN260 OVC370 25/15 Q1019 BLU NOSIG EHEH 181725Z AUTO 34007KT 300V020 9999 OVC270 25/15 Q1019 BLU NOSIG EHEH 181655Z AUTO 30003KT 230V330 9999 FEW100 OVC270 27/13 Q1020 BLU NOSIG EHEH 181625Z AUTO VRB02KT 9999 OVC260 27/14 Q1020 BLU NOSIG EHEH 181555Z AUTO 26003KT 210V320 9999 FEW086 OVC330 27/14 Q1020 BLU NOSIG EHEH 181525Z AUTO 26006KT 220V320 9999 SCT096 OVC100 27/14 Q1020 BLU NOSIG EHEH 181455Z AUTO 17004KT 290V080 9999 OVC290 27/14 Q1020 BLU NOSIG EHEH 181425Z AUTO 25006KT 240V040 9999 OVC090 27/15 Q1020 BLU NOSIG EHEH 181355Z AUTO 32003KT 250V350 9999 FEW045 SCT074 BKN088 27/15 Q1020 BLU NOSIG EHEH 181325Z AUTO VRB05KT 9999 FEW070 BKN084 BKN370 26/15 Q1020 BLU NOSIG

METAR Messwerte "EINDHOVEN RNLAFB" EHEH

Zurück zur Übersicht

Ortsname
Ländercode / m ü. NN
Zeit Temperatur Taupunkt Rel.
Luftfeuchte
Luftdruck:
Altimeter
NN
Station
Wind in Beaufort
(Knoten)
Sichtweite
(Meter)
Wolken
(Meter über Grund)
Wettererscheinung
EINDHOVEN RNLAFB
NL 20
Fr 20.05. 02:551010100 %1022
1022
1020
S 1 (1)200Bedeckt (8500)
Leicht bewölkt (0)
Nebel
EINDHOVEN RNLAFB
NL 20
Fr 20.05. 02:501010100 %1022
1022
1020
S 1 (1)3500Bedeckt (8500)Nebeldunst
EINDHOVEN RNLAFB
NL 20
Fr 20.05. 02:441010100 %1022
1022
1020
S 1 (1)3900Bedeckt (11000)
Stark bewölkt (8800)
Nebeldunst
EINDHOVEN RNLAFB
NL 20
Fr 20.05. 02:401010100 %1022
1022
1020
Windstill800Bedeckt (11000)
Stark bewölkt (9100)
Leicht bewölkt (0)
Nebel
EINDHOVEN RNLAFB
NL 20
Fr 20.05. 02:251010100 %1022
1022
1020
S 1 (1)200Bedeckt (11000)
Leicht bewölkt (9100)
Nebel
EINDHOVEN RNLAFB
NL 20
Fr 20.05. 02:181010100 %1022
1022
1020
S 1 (1)1400Bedeckt (11000)
Leicht bewölkt (9100)
Nebeldunst
EINDHOVEN RNLAFB
NL 20
Fr 20.05. 02:071111100 %1022
1022
1020
S 1 (1)4600Stark bewölkt (11000)
Wolkig (0)
Nebeldunst
EINDHOVEN RNLAFB
NL 20
Fr 20.05. 01:581111100 %1022
1022
1020
S 1 (2)3000Wolkig (11000)
Wolkig (0)
Nebeldunst
EINDHOVEN RNLAFB
NL 20
Fr 20.05. 01:551111100 %1022
1022
1020
Uml 1 (2)2400Wolkig (11000)Nebeldunst
EINDHOVEN RNLAFB
NL 20
Fr 20.05. 01:461111100 %1022
1022
1020
SSO 2 (3)2000Leicht bewölkt (11000)Nebeldunst
EINDHOVEN RNLAFB
NL 20
Fr 20.05. 01:45111094 %1022
1022
1020
SSO 2 (3)900 Nebel
EINDHOVEN RNLAFB
NL 20
Fr 20.05. 01:251111100 %1022
1022
1020
S 1 (1)2500 Nebeldunst
EINDHOVEN RNLAFB
NL 20
Fr 20.05. 01:201111100 %1022
1022
1020
S 1 (2)2200 Nebeldunst
EINDHOVEN RNLAFB
NL 20
Fr 20.05. 01:161111100 %1022
1022
1020
S 1 (2)900Leicht bewölkt (8200)Nebel
EINDHOVEN RNLAFB
NL 20
Fr 20.05. 01:111111100 %1022
1022
1020
S 1 (2)1700Wolkig (8200)Nebeldunst
EINDHOVEN RNLAFB
NL 20
Fr 20.05. 01:07121194 %1022
1022
1020
S 1 (2)800Stark bewölkt (8200)Nebel
EINDHOVEN RNLAFB
NL 20
Fr 20.05. 00:591212100 %1022
1022
1020
SSO 1 (1)1800Bedeckt (8200)Nebeldunst
EINDHOVEN RNLAFB
NL 20
Fr 20.05. 00:551111100 %1022
1022
1020
SSO 1 (1)1500Bedeckt (8200)Nebeldunst
EINDHOVEN RNLAFB
NL 20
Fr 20.05. 00:501212100 %1022
1022
1020
SSO 1 (1)1000Bedeckt (8200)Nebeldunst
EINDHOVEN RNLAFB
NL 20
Fr 20.05. 00:461212100 %1022
1022
1020
SSO 1 (1)2600Bedeckt (8200)Nebeldunst
EINDHOVEN RNLAFB
NL 20
Fr 20.05. 00:33121194 %1022
1022
1020
W 1 (1)2700Bedeckt (8500)Nebeldunst
EINDHOVEN RNLAFB
NL 20
Fr 20.05. 00:281212100 %1022
1022
1020
W 1 (1)700Bedeckt (8500)Nebel
EINDHOVEN RNLAFB
NL 20
Fr 20.05. 00:251212100 %1022
1022
1020
W 1 (1)3400Bedeckt (8800)Nebeldunst
EINDHOVEN RNLAFB
NL 20
Fr 20.05. 00:17131294 %1022
1022
1020
W 1 (1)4000Bedeckt (9100)Nebeldunst
EINDHOVEN RNLAFB
NL 20
Fr 20.05. 00:10131294 %1022
1022
1020
W 1 (1)3100Bedeckt (9100)Nebeldunst
EINDHOVEN RNLAFB
NL 20
Fr 20.05. 00:071313100 %1022
1022
1020
W 1 (2)4700Bedeckt (9400)Nebeldunst
EINDHOVEN RNLAFB
NL 20
Fr 20.05. 00:031313100 %1022
1022
1020
Uml 1 (2)5000Stark bewölkt (9400)Nebeldunst
EINDHOVEN RNLAFB
NL 20
Do 19.05. 23:551313100 %1022
1022
1020
Uml 1 (2)4400Leicht bewölkt (9800)Nebeldunst
EINDHOVEN RNLAFB
NL 20
Do 19.05. 23:44141394 %1022
1022
1020
W 2 (3)
SW - NW
5000
Bald Übergang zu: 2500
 Nebeldunst
Bald Übergang zu: Nebeldunst
Boden-Nebel
EINDHOVEN RNLAFB
NL 20
Do 19.05. 23:41141394 %1022
1022
1020
W 2 (3)
SW - NW
4300
Bald Übergang zu: 2500
 Nebeldunst
Bald Übergang zu: Nebeldunst
Boden-Nebel
EINDHOVEN RNLAFB
NL 20
Do 19.05. 23:25141394 %1022
1022
1020
WNW 2 (3)
WSW - N
7000
Bald Übergang zu: 4000
 Nebeldunst
Bald Übergang zu: Nebeldunst
Boden-Nebel
EINDHOVEN RNLAFB
NL 20
Do 19.05. 22:55151388 %1021
1021
1019
WNW 2 (4)
WSW - N
>= 10000  
EINDHOVEN RNLAFB
NL 20
Do 19.05. 22:25151388 %1021
1021
1019
W 2 (3)
W - NNW
>= 10000  
EINDHOVEN RNLAFB
NL 20
Do 19.05. 21:55161382 %1021
1021
1019
W 2 (4)
WSW - NW
>= 10000  
EINDHOVEN RNLAFB
NL 20
Do 19.05. 21:25171377 %1021
1021
1019
W 2 (4)
SW - NW
>= 10000Wolkig (7600) 
EINDHOVEN RNLAFB
NL 20
Do 19.05. 20:55181477 %1021
1021
1019
W 3 (7)
SW - WNW
>= 10000Stark bewölkt (8500) 
EINDHOVEN RNLAFB
NL 20
Do 19.05. 20:35181477 %1020
1020
1018
WNW 2 (6)
SW - NNW
>= 10000Stark bewölkt (8800)
Leicht bewölkt (640)
 
EINDHOVEN RNLAFB
NL 20
Do 19.05. 20:25181477 %1020
1020
1018
W 3 (7)
SW - NW
>= 10000Stark bewölkt (640) 
EINDHOVEN RNLAFB
NL 20
Do 19.05. 19:55191578 %1020
1020
1018
WNW 2 (6)
WSW - N
>= 10000Stark bewölkt (700) 
EINDHOVEN RNLAFB
NL 20
Do 19.05. 19:25191578 %1020
1020
1018
WNW 3 (8)
WSW - NNW
>= 10000Stark bewölkt (730) 
EINDHOVEN RNLAFB
NL 20
Do 19.05. 19:00201678 %1019
1019
1017
W 4 (11)
SW - NNO
>= 10000Bedeckt (910)
Leicht bewölkt (520)
 
EINDHOVEN RNLAFB
NL 20
Do 19.05. 18:57201678 %1019
1019
1017
W 4 (11)
SW - NNW
>= 10000Bedeckt (940)
Wolkig (520)
 
EINDHOVEN RNLAFB
NL 20
Do 19.05. 18:55201678 %1019
1019
1017
W 4 (11)
SW - NNW
>= 10000Stark bewölkt (1100)
Stark bewölkt (940)
Wolkig (520)
 
EINDHOVEN RNLAFB
NL 20
Do 19.05. 18:25201678 %1019
1019
1017
WSW 4 (11)
SSW - NW
>= 10000Bedeckt (1800)
Stark bewölkt (1600)
Wolkig (980)
 
EINDHOVEN RNLAFB
NL 20
Do 19.05. 18:14211673 %1019
1019
1017
W 3 (9)
SW - WNW
>= 10000Bedeckt (1800)
Stark bewölkt (1000)
Leicht bewölkt (580)
 
EINDHOVEN RNLAFB
NL 20
Do 19.05. 18:08211778 %1019
1019
1017
W 3 (8)
SSW - WNW
>= 10000Stark bewölkt (1900)
Wolkig (670)
Wolkig (550)
 
EINDHOVEN RNLAFB
NL 20
Do 19.05. 17:55221878 %1019
1019
1017
WSW 3 (9)
SSW - WNW
>= 10000Stark bewölkt (820)
Stark bewölkt (580)
Wolkig (490)
 
EINDHOVEN RNLAFB
NL 20
Do 19.05. 17:34211883 %1019
1019
1017
WSW 3 (8)
S - WNW
>= 10000Stark bewölkt (610)
Wolkig (520)
Leicht bewölkt (430)
 
EINDHOVEN RNLAFB
NL 20
Do 19.05. 17:30211778 %1019
1019
1017
SW 3 (8)
SSW - WNW
>= 10000Wolkig (520)
Leicht bewölkt (370)
 
EINDHOVEN RNLAFB
NL 20
Do 19.05. 17:28211883 %1019
1019
1017
SW 3 (7)
S - WNW
>= 10000Stark bewölkt (4300)
Wolkig (430)
Leicht bewölkt (370)
 
EINDHOVEN RNLAFB
NL 20
Do 19.05. 17:25211883 %1019
1019
1017
WSW 3 (7)
S - W
>= 10000Stark bewölkt (4300)
Wolkig (460)
Leicht bewölkt (370)
 
EINDHOVEN RNLAFB
NL 20
Do 19.05. 17:07211883 %1018
1018
1016
WSW 3 (8)
S - WNW
>= 10000Bedeckt (4300)
Leicht bewölkt (340)
 
EINDHOVEN RNLAFB
NL 20
Do 19.05. 16:55201783 %1018
1018
1016
SW 3 (8)
SSW - W
>= 10000Stark bewölkt (400)
Wolkig (300)
Leicht bewölkt (270)
 
EINDHOVEN RNLAFB
NL 20
Do 19.05. 16:47201783 %1018
1018
1016
SW 3 (7)
SSW - W
>= 10000Bedeckt (4000)
Wolkig (430)
Leicht bewölkt (300)
 
EINDHOVEN RNLAFB
NL 20
Do 19.05. 16:25201678 %1018
1018
1016
Uml 2 (3)>= 10000Bedeckt (4000) 
EINDHOVEN RNLAFB
NL 20
Do 19.05. 15:56191894 %1017
1017
1015
Uml 1 (1)>= 10000Bedeckt (2800)
Leicht bewölkt Cb (460)
 
EINDHOVEN RNLAFB
NL 20
Do 19.05. 15:55191894 %1017
1017
1015
Uml 1 (2)
Bald zeitweise:
Uml 5 (16) - 9 (42)
>= 10000
Bald zeitweise: 2000
Bedeckt (3000)
Stark bewölkt (2800)
Wolkig Cb (460)
 Bald zeitweise: Gewitter mit Regen/Hagel
EINDHOVEN RNLAFB
NL 20
Do 19.05. 15:37181794 %1018
1018
1016
Uml 3 (7)
Bald zeitweise:
Uml 5 (16) - 9 (42)
8000
Bald zeitweise: 2000
Stark bewölkt (2700)
Wolkig (2200)
Wolkig Cb (460)
Gewitter mit Regen (stark)
Bald zeitweise: Gewitter mit Regen/Hagel
EINDHOVEN RNLAFB
NL 20
Do 19.05. 15:36181794 %1018
1018
1016
W 2 (5)
SSW - NNW
Bald zeitweise:
Uml 5 (16) - 9 (42)
4900
Bald zeitweise: 2000
Stark bewölkt (2800)
Stark bewölkt (2100)
Leicht bewölkt Cb (460)
Gewitter mit Regen (stark)
Bald zeitweise: Gewitter mit Regen/Hagel
EINDHOVEN RNLAFB
NL 20
Do 19.05. 15:25191788 %1017
1017
1015
N 2 (4)
WNW - ONO
Bald zeitweise:
Uml 5 (16) - 9 (42)
>= 10000
Bald zeitweise: 2000
Bedeckt (3000)
Wolkig (2900)
Leicht bewölkt Cb (460)
 Bald zeitweise: Gewitter mit Regen/Hagel
EINDHOVEN RNLAFB
NL 20
Do 19.05. 14:55181794 %1018
1018
1016
NW 3 (7)
W - NNO
Bald zeitweise:
Uml 5 (16) - 9 (42)
>= 10000
Bald zeitweise: 2000
Bedeckt (4600)
Wolkig (3000)
Leicht bewölkt Cb (460)
 Bald zeitweise: Gewitter mit Regen/Hagel
EINDHOVEN RNLAFB
NL 20
Do 19.05. 14:41171694 %1018
1018
1016
WNW 3 (7)
SW - NNO
Bald zeitweise:
Uml 5 (16) - 9 (42)
>= 10000
Bald zeitweise: 2000
Bedeckt (3000)
Leicht bewölkt Cb (460)
 Bald zeitweise: Gewitter mit Regen/Hagel
EINDHOVEN RNLAFB
NL 20
Do 19.05. 14:40171694 %1018
1018
1016
WNW 3 (7)
SW - N
Bald zeitweise:
Uml 5 (16) - 9 (42)
>= 10000
Bald zeitweise: 2000
Bedeckt (3000)
Wolkig Cb (460)
 Bald zeitweise: Gewitter mit Regen/Hagel
EINDHOVEN RNLAFB
NL 20
Do 19.05. 14:36171694 %1017
1017
1015
WNW 3 (8)
SW - N
Bald zeitweise:
Uml 5 (16) - 9 (42)
>= 10000
Bald zeitweise: 2000
Bedeckt (3000)
Wolkig (1800)
Stark bewölkt Cb (460)
 Bald zeitweise: Gewitter mit Regen/Hagel
EINDHOVEN RNLAFB
NL 20
Do 19.05. 14:32171694 %1017
1017
1015
NW 3 (8)
W - NO
Bald zeitweise:
Uml 5 (16) - 9 (42)
>= 10000
Bald zeitweise: 2000
Stark bewölkt (2800)
Wolkig (1800)
Stark bewölkt Cb (460)
Gewitter mit Regen (schwach)
Bald zeitweise: Gewitter mit Regen/Hagel
EINDHOVEN RNLAFB
NL 20
Do 19.05. 14:26171694 %1017
1017
1015
NW 3 (9)
W - NO
Bald zeitweise:
Uml 5 (16) - 9 (42)
>= 10000
Bald zeitweise: 1000
Stark bewölkt (2700)
Wolkig (2500)
Stark bewölkt Cb (460)
Gewitter mit Regen
Bald zeitweise: Gewitter mit Regen/Hagel
EINDHOVEN RNLAFB
NL 20
Do 19.05. 14:25171694 %1018
1018
1016
WNW 3 (9)
SW - N
Bald zeitweise:
Uml 5 (16) - 9 (42)
>= 10000
Bald zeitweise: 1000
Bedeckt (2900)
Wolkig (2600)
Leicht bewölkt Cb (460)
Gewitter mit Regen
Bald zeitweise: Gewitter mit Regen/Hagel
EINDHOVEN RNLAFB
NL 20
Do 19.05. 14:16171694 %1018
1018
1016
W 3 (9)
SW - N
Bald zeitweise:
Uml 5 (16) - 9 (42)
>= 10000
Bald zeitweise: 1000
Stark bewölkt (2600)
Wolkig (2400)
Leicht bewölkt Cb (460)
Leicht bewölkt (0)
Gewitter mit Regen (schwach)
Bald zeitweise: Gewitter mit Regen/Hagel
EINDHOVEN RNLAFB
NL 20
Do 19.05. 14:09171694 %1018
1018
1016
WNW 4 (11) - 6 (23)
SW - N
Bald zeitweise:
Uml 5 (16) - 9 (42)
>= 10000
Bald zeitweise: 1000
Stark bewölkt (2200)
Leicht bewölkt Cb (460)
Wolkig (120)
Leicht bewölkt (0)
Gewitter mit Regen (schwach)
Bald zeitweise: Gewitter mit Regen/Hagel
EINDHOVEN RNLAFB
NL 20
Do 19.05. 13:59161594 %1019
1019
1017
W 5 (18) - 7 (29)
SW - NNW
Bald zeitweise:
Uml 5 (16) - 9 (42)
6000
Bald zeitweise: 1000
Leicht bewölkt Cb (460)
Stark bewölkt (300)
Stark bewölkt (120)
Wolkig (0)
Gewitter mit Regen (stark)
Bald zeitweise: Gewitter mit Regen/Hagel
EINDHOVEN RNLAFB
NL 20
Do 19.05. 13:55161594 %1019
1019
1017
W 6 (23) - 9 (43)
SW - NW
Bald zeitweise:
Uml 5 (16) - 9 (42)
6000
Bald zeitweise: 500
Stark bewölkt (670)
Leicht bewölkt Cb (460)
Wolkig (120)
Leicht bewölkt (0)
Gewitter mit Regen (stark)
Bald zeitweise: Gewitter mit Regen/Hagel
EINDHOVEN RNLAFB
NL 20
Do 19.05. 13:44181477 %1017
1017
1015
W 8 (34) - 9 (46)
SW - NNW
Bald zeitweise:
Uml 5 (16) - 9 (42)
2700
Bald zeitweise: 500
Stark bewölkt (1700)
Wolkig (610)
Leicht bewölkt Cb (460)
Leicht bewölkt (0)
Gewitter mit Regen (schwach)
Bald zeitweise: Gewitter mit Regen/Hagel
EINDHOVEN RNLAFB
NL 20
Do 19.05. 13:43221565 %1016
1016
1014
WSW 8 (40) - 11 (60)
S - WNW
Bald zeitweise:
Uml 5 (16) - 9 (42)
>= 10000
Bald zeitweise: 500
Stark bewölkt (1900)
Wolkig (1600)
Leicht bewölkt Cb (910)
Leicht bewölkt (760)
 Bald zeitweise: Gewitter mit Regen/Hagel
EINDHOVEN RNLAFB
NL 20
Do 19.05. 13:39271548 %1016
1016
1014
SW 3 (10) - 9 (42)
S - W
Bald zeitweise:
Uml 5 (16) - 9 (42)
>= 10000
Bald zeitweise: 500
Stark bewölkt (2300)
Wolkig (1900)
Leicht bewölkt Cb (1400)
 Bald zeitweise: Gewitter mit Regen/Hagel
EINDHOVEN RNLAFB
NL 20
Do 19.05. 13:27271548 %1015
1015
1013
S 2 (6)
SO - SW
Bald zeitweise:
Uml 5 (16) - 9 (42)
>= 10000
Bald zeitweise: 2000
Stark bewölkt (2600)
Wolkig (2200)
Leicht bewölkt Cb (1400)
 Bald zeitweise: Gewitter mit Regen/Hagel
EINDHOVEN RNLAFB
NL 20
Do 19.05. 13:25271548 %1015
1015
1013
S 3 (7)
SO - SW
Bald zeitweise:
Uml 4 (15) - 8 (35)
>= 10000
Bald zeitweise: 2000
Bedeckt (2400)
Stark bewölkt (2200)
 Bald zeitweise: Gewitter mit Regen/Hagel
EINDHOVEN RNLAFB
NL 20
Do 19.05. 13:19271548 %1015
1015
1013
S 3 (7)
OSO - SW
Bald zeitweise:
Uml 4 (15) - 8 (35)
>= 10000
Bald zeitweise: 2000
Bedeckt (2200) Bald zeitweise: Gewitter mit Regen/Hagel
EINDHOVEN RNLAFB
NL 20
Do 19.05. 12:55281442 %1015
1015
1013
SSO 3 (9)
O - SSW
>= 10000Stark bewölkt (2700)
Stark bewölkt (2500)
Stark bewölkt (2300)
Stark bewölkt (2200)
Stark bewölkt Cb (910)
Wolkig (370)
Gewitter mit Regen/Hagel
EINDHOVEN RNLAFB
NL 20
Do 19.05. 12:25271548 %1015
1015
1013
SO 3 (8)
O - SW
>= 10000Bedeckt (4300)
Stark bewölkt (2700)
Wolkig (2600)
Wolkig (2300)
Stark bewölkt Cb (910)
Wolkig (370)
Gewitter mit Regen/Hagel
EINDHOVEN RNLAFB
NL 20
Do 19.05. 12:08261551 %1016
1016
1014
SO 3 (7)
ONO - SSW
>= 10000Bedeckt (4300)
Wolkig (2700)
Stark bewölkt (2700)
Leicht bewölkt (2500)
Stark bewölkt Cb (910)
Wolkig (370)
Gewitter mit Regen/Hagel
EINDHOVEN RNLAFB
NL 20
Do 19.05. 11:55261654 %1016
1016
1014
OSO 2 (5)
OSO - SSW
>= 10000Bedeckt (4300)
Wolkig (2500)
 
EINDHOVEN RNLAFB
NL 20
Do 19.05. 11:25261654 %1016
1016
1014
OSO 3 (7)
ONO - S
>= 10000Bedeckt (5200) 
EINDHOVEN RNLAFB
NL 20
Do 19.05. 10:55251657 %1016
1016
1014
OSO 3 (8)
ONO - SW
>= 10000Bedeckt (5200) 
EINDHOVEN RNLAFB
NL 20
Do 19.05. 10:25231665 %1016
1016
1014
OSO 3 (7)
ONO - SSW
>= 10000Bedeckt (5800) 
EINDHOVEN RNLAFB
NL 20
Do 19.05. 09:55211778 %1017
1017
1015
SO 2 (6)
O - SSW
>= 10000Bedeckt (5800) 
EINDHOVEN RNLAFB
NL 20
Do 19.05. 09:25201783 %1016
1016
1014
SO 2 (5)
O - S
>= 10000Bedeckt (5200) 
EINDHOVEN RNLAFB
NL 20
Do 19.05. 09:16201783 %1016
1016
1014
OSO 2 (4)
O - SSO
>= 10000Bedeckt (6100)
Stark bewölkt (4600)
Leicht bewölkt Cb (460)
 
EINDHOVEN RNLAFB
NL 20
Do 19.05. 08:55201783 %1017
1017
1015
O 2 (3)
Bald zeitweise:
SSW 3 (10) - 5 (20)
>= 10000
Bald zeitweise: 4000
Bedeckt (3400) Bald zeitweise: Regen-Schauer
EINDHOVEN RNLAFB
NL 20
Do 19.05. 08:25191788 %1017
1017
1015
Uml 1 (2)
Bald zeitweise:
SSW 3 (10) - 5 (20)
>= 10000
Bald zeitweise: 4000
Bedeckt (3700)
Leicht bewölkt Cb (460)
 Bald zeitweise: Regen-Schauer
EINDHOVEN RNLAFB
NL 20
Do 19.05. 07:55191683 %1017
1017
1015
O 2 (6)
ONO - SO
Bald zeitweise:
SSW 3 (10) - 6 (25)
>= 10000
Bald zeitweise: 3000
Stark bewölkt (2900)
Wolkig (2600)
Leicht bewölkt Cb (460)
Regen (schwach)
Bald zeitweise: Regen-Schauer
Gewitter mit Regen
EINDHOVEN RNLAFB
NL 20
Do 19.05. 07:36191683 %1017
1017
1015
NO 2 (5)
NNO - O
Bald zeitweise:
SSW 3 (10) - 6 (25)
>= 10000
Bald zeitweise: 3000
Stark bewölkt (2700)
Wolkig (2000)
Leicht bewölkt Cb (460)
Leicht bewölkt (210)
Regen (schwach)
Bald zeitweise: Regen-Schauer
Gewitter mit Regen
EINDHOVEN RNLAFB
NL 20
Do 19.05. 07:25191683 %1017
1017
1015
N 2 (5)
NNW - NO
Bald zeitweise:
SSW 3 (10) - 6 (25)
>= 10000
Bald zeitweise: 3000
Bedeckt (2700)
Stark bewölkt (2400)
Wolkig Cb (460)
Regen (schwach)
Bald zeitweise: Regen-Schauer
Gewitter mit Regen
EINDHOVEN RNLAFB
NL 20
Do 19.05. 07:17191683 %1018
1018
1016
N 2 (4)
Bald zeitweise:
SSW 3 (10) - 6 (25)
>= 10000
Bald zeitweise: 3000
Bedeckt (2600)
Stark bewölkt (2400)
Leicht bewölkt Cb (460)
Regen (schwach)
Bald zeitweise: Regen-Schauer
Gewitter mit Regen
EINDHOVEN RNLAFB
NL 20
Do 19.05. 06:55191683 %1018
1018
1016
N 2 (3)
NW - NO
Bald zeitweise:
SSW 3 (10) - 6 (23)
>= 10000
Bald zeitweise: 3000
Stark bewölkt (2900)
Wolkig (2300)
Leicht bewölkt Cb (460)
 Bald zeitweise: Regen-Schauer
Gewitter mit Regen
EINDHOVEN RNLAFB
NL 20
Do 19.05. 06:27191683 %1018
1018
1016
Uml 1 (1)
Bald zeitweise:
SSW 3 (10) - 6 (23)
>= 10000
Bald zeitweise: 3000
Bedeckt (2700) Bald zeitweise: Regen-Schauer
Gewitter mit Regen
EINDHOVEN RNLAFB
NL 20
Do 19.05. 06:25191683 %1018
1018
1016
Uml 1 (2)
Bald zeitweise:
SSW 3 (10) - 6 (23)
>= 10000
Bald zeitweise: 3000
Bedeckt (2700)
Leicht bewölkt (2200)
 Bald zeitweise: Regen-Schauer
Gewitter mit Regen
EINDHOVEN RNLAFB
NL 20
Do 19.05. 05:55201678 %1018
1018
1016
Uml 1 (2)>= 10000Stark bewölkt (4300)
Stark bewölkt (2800)
Stark bewölkt (2700)
 
EINDHOVEN RNLAFB
NL 20
Do 19.05. 05:25201573 %1018
1018
1016
Uml 3 (8)>= 10000Bedeckt (2700)
Stark bewölkt (2500)
 
EINDHOVEN RNLAFB
NL 20
Do 19.05. 04:55191683 %1016
1016
1014
SO 2 (5)
OSO - S
>= 10000Bedeckt (2500) 
EINDHOVEN RNLAFB
NL 20
Do 19.05. 04:25191683 %1016
1016
1014
SO 2 (5)
O - S
>= 10000Bedeckt (6700) 
EINDHOVEN RNLAFB
NL 20
Do 19.05. 03:55191683 %1016
1016
1014
OSO 2 (5)
ONO - SSO
>= 10000Bedeckt (7000) 
EINDHOVEN RNLAFB
NL 20
Do 19.05. 03:25191683 %1016
1016
1014
O 2 (3)
ONO - SO
>= 10000Bedeckt (6700) 
EINDHOVEN RNLAFB
NL 20
Do 19.05. 02:55201678 %1017
1017
1015
O 2 (5)
NO - OSO
>= 10000Bedeckt (7300) 
EINDHOVEN RNLAFB
NL 20
Do 19.05. 02:25201678 %1017
1017
1015
ONO 2 (5)
NO - OSO
>= 10000Bedeckt (7900) 
EINDHOVEN RNLAFB
NL 20
Do 19.05. 01:55201678 %1017
1017
1015
ONO 2 (5)
NO - O
>= 10000Bedeckt (7600) 
EINDHOVEN RNLAFB
NL 20
Do 19.05. 01:25201678 %1018
1018
1016
O 2 (5)>= 10000Bedeckt (7600) 
EINDHOVEN RNLAFB
NL 20
Do 19.05. 00:55211673 %1018
1018
1016
ONO 2 (6)
NO - OSO
>= 10000Bedeckt (8200) 
EINDHOVEN RNLAFB
NL 20
Do 19.05. 00:25211673 %1018
1018
1016
ONO 2 (5)
NNO - O
>= 10000Stark bewölkt (7900)
Wolkig (2800)
Leicht bewölkt (2200)
 
EINDHOVEN RNLAFB
NL 20
Mi 18.05. 23:55201678 %1019
1019
1017
NNO 2 (3)>= 10000Bedeckt (2400)
Stark bewölkt (2200)
 
EINDHOVEN RNLAFB
NL 20
Mi 18.05. 23:25191578 %1019
1019
1017
NNO 2 (5)>= 10000Bedeckt (8200) 
EINDHOVEN RNLAFB
NL 20
Mi 18.05. 22:55211569 %1019
1019
1017
NNO 2 (5)>= 10000Stark bewölkt (2600)
Stark bewölkt (2400)
Wolkig (2200)
 
EINDHOVEN RNLAFB
NL 20
Mi 18.05. 22:25211673 %1019
1019
1017
N 2 (4)>= 10000Stark bewölkt (2900)
Stark bewölkt (2500)
Stark bewölkt (2200)
 
EINDHOVEN RNLAFB
NL 20
Mi 18.05. 21:55221669 %1019
1019
1017
NNW 2 (4)
NW - NNO
>= 10000Bedeckt (2100) 
EINDHOVEN RNLAFB
NL 20
Mi 18.05. 21:25221669 %1019
1019
1017
N 2 (4)>= 10000Stark bewölkt (2900)
Stark bewölkt (2700)
Leicht bewölkt (2200)
 
EINDHOVEN RNLAFB
NL 20
Mi 18.05. 20:55231665 %1019
1019
1017
N 2 (6)
NW - NNO
>= 10000Bedeckt (7600)
Stark bewölkt (3000)
Leicht bewölkt (2700)
 
EINDHOVEN RNLAFB
NL 20
Mi 18.05. 20:25241557 %1019
1019
1017
NNW 2 (5)
NW - NNO
>= 10000Bedeckt (7600)
Wolkig (2800)
Wolkig (2700)
 
EINDHOVEN RNLAFB
NL 20
Mi 18.05. 19:55251554 %1019
1019
1017
NNW 3 (7)
NW - NNO
>= 10000Bedeckt (11000)
Stark bewölkt (7900)
 
EINDHOVEN RNLAFB
NL 20
Mi 18.05. 19:25251554 %1019
1019
1017
NNW 3 (7)
WNW - NNO
>= 10000Bedeckt (8200) 
EINDHOVEN RNLAFB
NL 20
Mi 18.05. 18:55271342 %1020
1020
1018
WNW 2 (3)
SW - NNW
>= 10000Bedeckt (8200)
Leicht bewölkt (3000)
 
EINDHOVEN RNLAFB
NL 20
Mi 18.05. 18:25271445 %1020
1020
1018
Uml 1 (2)>= 10000Bedeckt (7900) 
EINDHOVEN RNLAFB
NL 20
Mi 18.05. 17:55271445 %1020
1020
1018
W 2 (3)
SSW - NW
>= 10000Bedeckt (10000)
Leicht bewölkt (2600)
 
EINDHOVEN RNLAFB
NL 20
Mi 18.05. 17:25271445 %1020
1020
1018
W 2 (6)
SW - NW
>= 10000Bedeckt (3000)
Wolkig (2900)
 
EINDHOVEN RNLAFB
NL 20
Mi 18.05. 16:55271445 %1020
1020
1018
S 2 (4)
WNW - O
>= 10000Bedeckt (8800) 
EINDHOVEN RNLAFB
NL 20
Mi 18.05. 16:25271548 %1020
1020
1018
WSW 2 (6)
WSW - NO
>= 10000Bedeckt (2700) 
EINDHOVEN RNLAFB
NL 20
Mi 18.05. 15:55271548 %1020
1020
1018
NW 2 (3)
WSW - N
>= 10000Stark bewölkt (2700)
Wolkig (2300)
Leicht bewölkt (1400)
 
EINDHOVEN RNLAFB
NL 20
Mi 18.05. 15:25261551 %1020
1020
1018
Uml 2 (5)>= 10000Stark bewölkt (11000)
Stark bewölkt (2600)
Leicht bewölkt (2100)
 

Altimeter: Einstellung am Altimeter (Höhenmesser), die Höhe 0 muss auf diesen Luftdruckwert zeigen, damit das Gerät die Stationshöhe richtig anzeigt.

NN: Luftdruck reduziert auf "Normal Null", auf Meereshöhe, dieser von der Temperatur abhängige Wert wird bisweilen unkorrekt einfach als "Luftdruck" bezeichnet. Eigentlich nur eine fiktive Größe, die es erlaubt, Stationen auf unterschiedlichen Höhen miteinander zu vergleichen.

Station: Realer Luftdruck an der Station.